sensor_id;sensor_type;location;lat;lon;timestamp;temperature;humidity
3380;DHT22;1703;51.964;7.642;2023-12-20T00:01:00;8.00;99.90
3380;DHT22;1703;51.964;7.642;2023-12-20T00:03:27;8.00;99.90
3380;DHT22;1703;51.964;7.642;2023-12-20T00:05:53;7.90;99.90
3380;DHT22;1703;51.964;7.642;2023-12-20T00:08:21;8.00;99.90
3380;DHT22;1703;51.964;7.642;2023-12-20T00:10:47;8.00;99.90
3380;DHT22;1703;51.964;7.642;2023-12-20T00:13:14;7.90;99.90
3380;DHT22;1703;51.964;7.642;2023-12-20T00:15:41;7.90;99.90
3380;DHT22;1703;51.964;7.642;2023-12-20T00:18:09;8.00;99.90
3380;DHT22;1703;51.964;7.642;2023-12-20T00:20:36;7.90;99.90
3380;DHT22;1703;51.964;7.642;2023-12-20T00:23:03;7.90;99.90
3380;DHT22;1703;51.964;7.642;2023-12-20T00:25:30;7.90;99.90
3380;DHT22;1703;51.964;7.642;2023-12-20T00:27:56;7.80;99.90
3380;DHT22;1703;51.964;7.642;2023-12-20T00:30:23;7.80;99.90
3380;DHT22;1703;51.964;7.642;2023-12-20T00:32:50;7.80;99.90
3380;DHT22;1703;51.964;7.642;2023-12-20T00:35:18;7.80;99.90
3380;DHT22;1703;51.964;7.642;2023-12-20T00:37:45;7.80;99.90
3380;DHT22;1703;51.964;7.642;2023-12-20T00:40:12;7.80;99.90
3380;DHT22;1703;51.964;7.642;2023-12-20T00:42:39;7.80;99.90
3380;DHT22;1703;51.964;7.642;2023-12-20T00:45:06;7.80;99.90
3380;DHT22;1703;51.964;7.642;2023-12-20T00:47:33;7.80;99.90
3380;DHT22;1703;51.964;7.642;2023-12-20T00:50:00;7.80;99.90
3380;DHT22;1703;51.964;7.642;2023-12-20T00:52:28;7.80;99.90
3380;DHT22;1703;51.964;7.642;2023-12-20T00:54:55;7.80;99.90
3380;DHT22;1703;51.964;7.642;2023-12-20T00:57:22;7.80;99.90
3380;DHT22;1703;51.964;7.642;2023-12-20T00:59:49;7.70;99.90
3380;DHT22;1703;51.964;7.642;2023-12-20T01:02:15;7.70;99.90
3380;DHT22;1703;51.964;7.642;2023-12-20T01:04:42;7.70;99.90
3380;DHT22;1703;51.964;7.642;2023-12-20T01:07:09;7.60;99.90
3380;DHT22;1703;51.964;7.642;2023-12-20T01:09:37;7.60;99.90
3380;DHT22;1703;51.964;7.642;2023-12-20T01:12:04;7.60;99.90
3380;DHT22;1703;51.964;7.642;2023-12-20T01:14:31;7.50;99.90
3380;DHT22;1703;51.964;7.642;2023-12-20T01:16:59;7.60;99.90
3380;DHT22;1703;51.964;7.642;2023-12-20T01:19:26;7.50;99.90
3380;DHT22;1703;51.964;7.642;2023-12-20T01:21:54;7.50;99.90
3380;DHT22;1703;51.964;7.642;2023-12-20T01:24:21;7.50;99.90
3380;DHT22;1703;51.964;7.642;2023-12-20T01:26:49;7.50;99.90
3380;DHT22;1703;51.964;7.642;2023-12-20T01:29:16;7.50;99.90
3380;DHT22;1703;51.964;7.642;2023-12-20T01:31:43;7.40;99.90
3380;DHT22;1703;51.964;7.642;2023-12-20T01:34:12;7.40;99.90
3380;DHT22;1703;51.964;7.642;2023-12-20T01:36:38;7.40;99.90
3380;DHT22;1703;51.964;7.642;2023-12-20T01:39:05;7.40;99.90
3380;DHT22;1703;51.964;7.642;2023-12-20T01:41:32;7.30;99.90
3380;DHT22;1703;51.964;7.642;2023-12-20T01:44:00;7.30;99.90
3380;DHT22;1703;51.964;7.642;2023-12-20T01:46:27;7.30;99.90
3380;DHT22;1703;51.964;7.642;2023-12-20T01:48:53;7.20;99.90
3380;DHT22;1703;51.964;7.642;2023-12-20T01:51:21;7.20;99.90
3380;DHT22;1703;51.964;7.642;2023-12-20T01:53:48;7.20;99.90
3380;DHT22;1703;51.964;7.642;2023-12-20T01:56:15;7.20;99.90
3380;DHT22;1703;51.964;7.642;2023-12-20T01:58:44;7.20;99.90
3380;DHT22;1703;51.964;7.642;2023-12-20T02:01:13;7.20;99.90
3380;DHT22;1703;51.964;7.642;2023-12-20T02:03:40;7.20;99.90
3380;DHT22;1703;51.964;7.642;2023-12-20T02:06:08;7.10;99.90
3380;DHT22;1703;51.964;7.642;2023-12-20T02:08:35;7.10;99.90
3380;DHT22;1703;51.964;7.642;2023-12-20T02:11:01;7.10;99.90
3380;DHT22;1703;51.964;7.642;2023-12-20T02:13:28;7.00;99.90
3380;DHT22;1703;51.964;7.642;2023-12-20T02:15:55;7.00;99.90
3380;DHT22;1703;51.964;7.642;2023-12-20T02:18:23;7.00;99.90
3380;DHT22;1703;51.964;7.642;2023-12-20T02:20:50;7.00;99.90
3380;DHT22;1703;51.964;7.642;2023-12-20T02:23:18;7.00;99.90
3380;DHT22;1703;51.964;7.642;2023-12-20T02:25:46;7.00;99.90
3380;DHT22;1703;51.964;7.642;2023-12-20T02:28:13;7.00;99.90
3380;DHT22;1703;51.964;7.642;2023-12-20T02:30:39;7.00;99.90
3380;DHT22;1703;51.964;7.642;2023-12-20T02:33:08;7.10;99.90
3380;DHT22;1703;51.964;7.642;2023-12-20T02:35:37;7.00;99.90
3380;DHT22;1703;51.964;7.642;2023-12-20T02:38:04;7.00;99.90
3380;DHT22;1703;51.964;7.642;2023-12-20T02:40:32;7.00;99.90
3380;DHT22;1703;51.964;7.642;2023-12-20T02:42:59;7.00;99.90
3380;DHT22;1703;51.964;7.642;2023-12-20T02:45:26;7.00;99.90
3380;DHT22;1703;51.964;7.642;2023-12-20T02:47:53;7.00;99.90
3380;DHT22;1703;51.964;7.642;2023-12-20T02:50:19;6.90;99.90
3380;DHT22;1703;51.964;7.642;2023-12-20T02:52:46;6.90;99.90
3380;DHT22;1703;51.964;7.642;2023-12-20T02:55:13;6.90;99.90
3380;DHT22;1703;51.964;7.642;2023-12-20T02:57:41;6.90;99.90
3380;DHT22;1703;51.964;7.642;2023-12-20T03:00:08;6.90;99.90
3380;DHT22;1703;51.964;7.642;2023-12-20T03:02:36;6.90;99.90
3380;DHT22;1703;51.964;7.642;2023-12-20T03:05:03;6.90;99.90
3380;DHT22;1703;51.964;7.642;2023-12-20T03:07:30;6.90;99.90
3380;DHT22;1703;51.964;7.642;2023-12-20T03:09:57;6.90;99.90
3380;DHT22;1703;51.964;7.642;2023-12-20T03:12:23;6.80;99.90
3380;DHT22;1703;51.964;7.642;2023-12-20T03:14:51;6.80;99.90
3380;DHT22;1703;51.964;7.642;2023-12-20T03:17:18;6.80;99.90
3380;DHT22;1703;51.964;7.642;2023-12-20T03:19:46;6.90;99.90
3380;DHT22;1703;51.964;7.642;2023-12-20T03:22:12;6.80;99.90
3380;DHT22;1703;51.964;7.642;2023-12-20T03:24:39;6.80;99.90
3380;DHT22;1703;51.964;7.642;2023-12-20T03:27:06;6.80;99.90
3380;DHT22;1703;51.964;7.642;2023-12-20T03:29:33;6.80;99.90
3380;DHT22;1703;51.964;7.642;2023-12-20T03:32:01;6.80;99.90
3380;DHT22;1703;51.964;7.642;2023-12-20T03:34:27;6.80;99.90
3380;DHT22;1703;51.964;7.642;2023-12-20T03:36:54;6.80;99.90
3380;DHT22;1703;51.964;7.642;2023-12-20T03:39:21;6.90;99.90
3380;DHT22;1703;51.964;7.642;2023-12-20T03:41:48;6.80;99.90
3380;DHT22;1703;51.964;7.642;2023-12-20T03:44:14;6.80;99.90
3380;DHT22;1703;51.964;7.642;2023-12-20T03:46:41;6.80;99.90
3380;DHT22;1703;51.964;7.642;2023-12-20T03:49:09;6.70;99.90
3380;DHT22;1703;51.964;7.642;2023-12-20T03:51:36;6.70;99.90
3380;DHT22;1703;51.964;7.642;2023-12-20T03:54:03;6.70;99.90
3380;DHT22;1703;51.964;7.642;2023-12-20T03:56:30;6.70;99.90
3380;DHT22;1703;51.964;7.642;2023-12-20T03:58:56;6.60;99.90
3380;DHT22;1703;51.964;7.642;2023-12-20T04:01:23;6.60;99.90
3380;DHT22;1703;51.964;7.642;2023-12-20T04:03:50;6.60;99.90
3380;DHT22;1703;51.964;7.642;2023-12-20T04:06:18;6.70;99.90
3380;DHT22;1703;51.964;7.642;2023-12-20T04:08:45;6.60;99.90
3380;DHT22;1703;51.964;7.642;2023-12-20T04:11:12;6.60;99.90
3380;DHT22;1703;51.964;7.642;2023-12-20T04:13:39;6.60;99.90
3380;DHT22;1703;51.964;7.642;2023-12-20T04:16:06;6.60;99.90
3380;DHT22;1703;51.964;7.642;2023-12-20T04:18:32;6.60;99.90
3380;DHT22;1703;51.964;7.642;2023-12-20T04:20:59;6.60;99.90
3380;DHT22;1703;51.964;7.642;2023-12-20T04:23:27;6.60;99.90
3380;DHT22;1703;51.964;7.642;2023-12-20T04:25:54;6.60;99.90
3380;DHT22;1703;51.964;7.642;2023-12-20T04:28:22;6.60;99.90
3380;DHT22;1703;51.964;7.642;2023-12-20T04:30:48;6.60;99.90
3380;DHT22;1703;51.964;7.642;2023-12-20T04:33:15;6.60;99.90
3380;DHT22;1703;51.964;7.642;2023-12-20T04:35:42;6.60;99.90
3380;DHT22;1703;51.964;7.642;2023-12-20T04:38:11;6.60;99.90
3380;DHT22;1703;51.964;7.642;2023-12-20T04:40:39;6.60;99.90
3380;DHT22;1703;51.964;7.642;2023-12-20T04:43:06;6.70;99.90
3380;DHT22;1703;51.964;7.642;2023-12-20T04:45:34;6.70;99.90
3380;DHT22;1703;51.964;7.642;2023-12-20T04:48:01;6.70;99.90
3380;DHT22;1703;51.964;7.642;2023-12-20T04:50:28;6.70;99.90
3380;DHT22;1703;51.964;7.642;2023-12-20T04:52:55;6.70;99.90
3380;DHT22;1703;51.964;7.642;2023-12-20T04:55:22;6.70;99.90
3380;DHT22;1703;51.964;7.642;2023-12-20T04:57:50;6.70;99.90
3380;DHT22;1703;51.964;7.642;2023-12-20T05:00:17;6.70;99.90
3380;DHT22;1703;51.964;7.642;2023-12-20T05:02:44;6.70;99.90
3380;DHT22;1703;51.964;7.642;2023-12-20T05:05:11;6.70;99.90
3380;DHT22;1703;51.964;7.642;2023-12-20T05:07:38;6.70;99.90
3380;DHT22;1703;51.964;7.642;2023-12-20T05:10:06;6.70;99.90
3380;DHT22;1703;51.964;7.642;2023-12-20T05:12:33;6.70;99.90
3380;DHT22;1703;51.964;7.642;2023-12-20T05:15:02;6.70;99.90
3380;DHT22;1703;51.964;7.642;2023-12-20T05:17:29;6.80;99.90
3380;DHT22;1703;51.964;7.642;2023-12-20T05:19:57;6.70;99.90
3380;DHT22;1703;51.964;7.642;2023-12-20T05:22:24;6.70;99.90
3380;DHT22;1703;51.964;7.642;2023-12-20T05:24:51;6.70;99.90
3380;DHT22;1703;51.964;7.642;2023-12-20T05:27:18;6.70;99.90
3380;DHT22;1703;51.964;7.642;2023-12-20T05:29:45;6.70;99.90
3380;DHT22;1703;51.964;7.642;2023-12-20T05:32:13;6.70;99.90
3380;DHT22;1703;51.964;7.642;2023-12-20T05:34:40;6.70;99.90
3380;DHT22;1703;51.964;7.642;2023-12-20T05:37:07;6.70;99.90
3380;DHT22;1703;51.964;7.642;2023-12-20T05:39:33;6.70;99.90
3380;DHT22;1703;51.964;7.642;2023-12-20T05:42:00;6.80;99.90
3380;DHT22;1703;51.964;7.642;2023-12-20T05:44:27;6.70;99.90
3380;DHT22;1703;51.964;7.642;2023-12-20T05:46:54;6.80;99.90
3380;DHT22;1703;51.964;7.642;2023-12-20T05:49:22;6.70;99.90
3380;DHT22;1703;51.964;7.642;2023-12-20T05:51:48;6.80;99.90
3380;DHT22;1703;51.964;7.642;2023-12-20T05:54:16;6.80;99.90
3380;DHT22;1703;51.964;7.642;2023-12-20T05:56:43;6.80;99.90
3380;DHT22;1703;51.964;7.642;2023-12-20T05:59:10;6.70;99.90
3380;DHT22;1703;51.964;7.642;2023-12-20T06:01:36;6.70;99.90
3380;DHT22;1703;51.964;7.642;2023-12-20T06:04:03;6.70;99.90
3380;DHT22;1703;51.964;7.642;2023-12-20T06:06:31;6.70;99.90
3380;DHT22;1703;51.964;7.642;2023-12-20T06:08:58;6.80;99.90
3380;DHT22;1703;51.964;7.642;2023-12-20T06:11:26;6.80;99.90
3380;DHT22;1703;51.964;7.642;2023-12-20T06:13:53;6.80;99.90
3380;DHT22;1703;51.964;7.642;2023-12-20T06:16:19;6.80;99.90
3380;DHT22;1703;51.964;7.642;2023-12-20T06:18:46;6.80;99.90
3380;DHT22;1703;51.964;7.642;2023-12-20T06:21:13;6.80;99.90
3380;DHT22;1703;51.964;7.642;2023-12-20T06:23:41;6.80;99.90
3380;DHT22;1703;51.964;7.642;2023-12-20T06:26:08;6.80;99.90
3380;DHT22;1703;51.964;7.642;2023-12-20T06:28:35;6.80;99.90
3380;DHT22;1703;51.964;7.642;2023-12-20T06:31:02;6.90;99.90
3380;DHT22;1703;51.964;7.642;2023-12-20T06:33:29;6.90;99.90
3380;DHT22;1703;51.964;7.642;2023-12-20T06:35:56;6.90;99.90
3380;DHT22;1703;51.964;7.642;2023-12-20T06:38:23;6.90;99.90
3380;DHT22;1703;51.964;7.642;2023-12-20T06:40:51;6.90;99.90
3380;DHT22;1703;51.964;7.642;2023-12-20T06:43:18;6.80;99.90
3380;DHT22;1703;51.964;7.642;2023-12-20T06:45:45;6.90;99.90
3380;DHT22;1703;51.964;7.642;2023-12-20T06:48:11;6.80;99.90
3380;DHT22;1703;51.964;7.642;2023-12-20T06:50:39;6.80;99.90
3380;DHT22;1703;51.964;7.642;2023-12-20T06:53:06;6.80;99.90
3380;DHT22;1703;51.964;7.642;2023-12-20T06:55:33;6.80;99.90
3380;DHT22;1703;51.964;7.642;2023-12-20T06:58:02;6.80;99.90
3380;DHT22;1703;51.964;7.642;2023-12-20T07:00:29;6.80;99.90
3380;DHT22;1703;51.964;7.642;2023-12-20T07:02:56;6.90;99.90
3380;DHT22;1703;51.964;7.642;2023-12-20T07:05:24;6.90;99.90
3380;DHT22;1703;51.964;7.642;2023-12-20T07:07:51;6.90;99.90
3380;DHT22;1703;51.964;7.642;2023-12-20T07:10:17;6.90;99.90
3380;DHT22;1703;51.964;7.642;2023-12-20T07:12:44;6.90;99.90
3380;DHT22;1703;51.964;7.642;2023-12-20T07:15:12;6.90;99.90
3380;DHT22;1703;51.964;7.642;2023-12-20T07:17:39;7.00;99.90
3380;DHT22;1703;51.964;7.642;2023-12-20T07:20:07;7.00;99.90
3380;DHT22;1703;51.964;7.642;2023-12-20T07:22:36;7.10;99.90
3380;DHT22;1703;51.964;7.642;2023-12-20T07:25:03;7.00;99.90
3380;DHT22;1703;51.964;7.642;2023-12-20T07:27:30;7.00;99.90
3380;DHT22;1703;51.964;7.642;2023-12-20T07:29:57;7.00;99.90
3380;DHT22;1703;51.964;7.642;2023-12-20T07:32:25;7.00;99.90
3380;DHT22;1703;51.964;7.642;2023-12-20T07:34:52;6.90;99.90
3380;DHT22;1703;51.964;7.642;2023-12-20T07:37:20;7.00;99.90
3380;DHT22;1703;51.964;7.642;2023-12-20T07:39:47;7.00;99.90
3380;DHT22;1703;51.964;7.642;2023-12-20T07:42:14;7.00;99.90
3380;DHT22;1703;51.964;7.642;2023-12-20T07:44:40;7.00;99.90
3380;DHT22;1703;51.964;7.642;2023-12-20T07:47:07;7.00;99.90
3380;DHT22;1703;51.964;7.642;2023-12-20T07:49:36;7.00;99.90
3380;DHT22;1703;51.964;7.642;2023-12-20T07:52:03;7.00;99.90
3380;DHT22;1703;51.964;7.642;2023-12-20T07:54:29;7.00;99.90
3380;DHT22;1703;51.964;7.642;2023-12-20T07:56:57;7.00;99.90
3380;DHT22;1703;51.964;7.642;2023-12-20T07:59:24;7.00;99.90
3380;DHT22;1703;51.964;7.642;2023-12-20T08:01:50;7.00;99.90
3380;DHT22;1703;51.964;7.642;2023-12-20T08:04:17;7.00;99.90
3380;DHT22;1703;51.964;7.642;2023-12-20T08:06:45;7.00;99.90
3380;DHT22;1703;51.964;7.642;2023-12-20T08:09:12;7.00;99.90
3380;DHT22;1703;51.964;7.642;2023-12-20T08:11:39;7.00;99.90
3380;DHT22;1703;51.964;7.642;2023-12-20T08:14:06;7.10;99.90
3380;DHT22;1703;51.964;7.642;2023-12-20T08:16:32;7.10;99.90
3380;DHT22;1703;51.964;7.642;2023-12-20T08:18:59;7.10;99.90
3380;DHT22;1703;51.964;7.642;2023-12-20T08:21:26;7.10;99.90
3380;DHT22;1703;51.964;7.642;2023-12-20T08:23:54;7.10;99.90
3380;DHT22;1703;51.964;7.642;2023-12-20T08:26:21;7.10;99.90
3380;DHT22;1703;51.964;7.642;2023-12-20T08:28:49;7.10;99.90
3380;DHT22;1703;51.964;7.642;2023-12-20T08:31:17;7.10;99.90
3380;DHT22;1703;51.964;7.642;2023-12-20T08:33:45;7.10;99.90
3380;DHT22;1703;51.964;7.642;2023-12-20T08:36:12;7.10;99.90
3380;DHT22;1703;51.964;7.642;2023-12-20T08:38:39;7.10;99.90
3380;DHT22;1703;51.964;7.642;2023-12-20T08:41:09;7.20;99.90
3380;DHT22;1703;51.964;7.642;2023-12-20T08:43:39;7.20;99.90
3380;DHT22;1703;51.964;7.642;2023-12-20T08:46:07;7.20;99.90
3380;DHT22;1703;51.964;7.642;2023-12-20T08:48:35;7.20;99.90
3380;DHT22;1703;51.964;7.642;2023-12-20T08:51:03;7.20;99.90
3380;DHT22;1703;51.964;7.642;2023-12-20T08:53:30;7.20;99.90
3380;DHT22;1703;51.964;7.642;2023-12-20T08:55:59;7.20;99.90
3380;DHT22;1703;51.964;7.642;2023-12-20T08:58:28;7.30;99.90
3380;DHT22;1703;51.964;7.642;2023-12-20T09:00:55;7.30;99.90
3380;DHT22;1703;51.964;7.642;2023-12-20T09:03:22;7.30;99.90
3380;DHT22;1703;51.964;7.642;2023-12-20T09:05:49;7.30;99.90
3380;DHT22;1703;51.964;7.642;2023-12-20T09:08:16;7.30;99.90
3380;DHT22;1703;51.964;7.642;2023-12-20T09:10:43;7.30;99.90
3380;DHT22;1703;51.964;7.642;2023-12-20T09:13:10;7.30;99.90
3380;DHT22;1703;51.964;7.642;2023-12-20T09:15:38;7.30;99.90
3380;DHT22;1703;51.964;7.642;2023-12-20T09:18:05;7.30;99.90
3380;DHT22;1703;51.964;7.642;2023-12-20T09:20:32;7.30;99.90
3380;DHT22;1703;51.964;7.642;2023-12-20T09:22:59;7.30;99.90
3380;DHT22;1703;51.964;7.642;2023-12-20T09:25:26;7.30;99.90
3380;DHT22;1703;51.964;7.642;2023-12-20T09:27:53;7.30;99.90
3380;DHT22;1703;51.964;7.642;2023-12-20T09:30:20;7.40;99.90
3380;DHT22;1703;51.964;7.642;2023-12-20T09:32:48;7.40;99.90
3380;DHT22;1703;51.964;7.642;2023-12-20T09:35:15;7.30;99.90
3380;DHT22;1703;51.964;7.642;2023-12-20T09:37:42;7.30;99.90
3380;DHT22;1703;51.964;7.642;2023-12-20T09:40:13;7.30;99.90
3380;DHT22;1703;51.964;7.642;2023-12-20T09:42:44;7.30;99.90
3380;DHT22;1703;51.964;7.642;2023-12-20T09:45:15;7.30;99.90
3380;DHT22;1703;51.964;7.642;2023-12-20T09:47:43;7.30;99.90
3380;DHT22;1703;51.964;7.642;2023-12-20T09:50:12;7.40;99.90
3380;DHT22;1703;51.964;7.642;2023-12-20T09:52:40;7.40;99.90
3380;DHT22;1703;51.964;7.642;2023-12-20T09:55:08;7.40;99.90
3380;DHT22;1703;51.964;7.642;2023-12-20T09:57:35;7.40;99.90
3380;DHT22;1703;51.964;7.642;2023-12-20T10:00:02;7.40;99.90
3380;DHT22;1703;51.964;7.642;2023-12-20T10:02:38;7.50;99.90
3380;DHT22;1703;51.964;7.642;2023-12-20T10:05:08;7.60;99.90
3380;DHT22;1703;51.964;7.642;2023-12-20T10:07:41;7.60;99.90
3380;DHT22;1703;51.964;7.642;2023-12-20T10:10:08;7.60;99.90
3380;DHT22;1703;51.964;7.642;2023-12-20T10:12:36;7.50;99.90
3380;DHT22;1703;51.964;7.642;2023-12-20T10:15:04;7.50;99.90
3380;DHT22;1703;51.964;7.642;2023-12-20T10:17:31;7.50;99.90
3380;DHT22;1703;51.964;7.642;2023-12-20T10:19:58;7.50;99.90
3380;DHT22;1703;51.964;7.642;2023-12-20T10:22:25;7.60;99.90
3380;DHT22;1703;51.964;7.642;2023-12-20T10:24:56;7.60;99.90
3380;DHT22;1703;51.964;7.642;2023-12-20T10:27:23;7.50;99.90
3380;DHT22;1703;51.964;7.642;2023-12-20T10:29:51;7.60;99.90
3380;DHT22;1703;51.964;7.642;2023-12-20T10:32:22;7.60;99.90
3380;DHT22;1703;51.964;7.642;2023-12-20T10:34:52;7.60;99.90
3380;DHT22;1703;51.964;7.642;2023-12-20T10:37:19;7.60;99.90
3380;DHT22;1703;51.964;7.642;2023-12-20T10:39:49;7.60;99.90
3380;DHT22;1703;51.964;7.642;2023-12-20T10:42:20;7.60;99.90
3380;DHT22;1703;51.964;7.642;2023-12-20T10:44:47;7.50;99.90
3380;DHT22;1703;51.964;7.642;2023-12-20T10:47:15;7.60;99.90
3380;DHT22;1703;51.964;7.642;2023-12-20T10:49:43;7.50;99.90
3380;DHT22;1703;51.964;7.642;2023-12-20T10:52:11;7.50;99.90
3380;DHT22;1703;51.964;7.642;2023-12-20T10:54:40;7.50;99.90
3380;DHT22;1703;51.964;7.642;2023-12-20T10:57:07;7.50;99.90
3380;DHT22;1703;51.964;7.642;2023-12-20T10:59:37;7.60;99.90
3380;DHT22;1703;51.964;7.642;2023-12-20T11:02:04;7.50;99.90
3380;DHT22;1703;51.964;7.642;2023-12-20T11:04:37;7.50;99.90
3380;DHT22;1703;51.964;7.642;2023-12-20T11:07:15;7.50;99.90
3380;DHT22;1703;51.964;7.642;2023-12-20T11:09:47;7.40;99.90
3380;DHT22;1703;51.964;7.642;2023-12-20T11:12:19;7.40;99.90
3380;DHT22;1703;51.964;7.642;2023-12-20T11:14:53;7.40;99.90
3380;DHT22;1703;51.964;7.642;2023-12-20T11:17:21;7.40;99.90
3380;DHT22;1703;51.964;7.642;2023-12-20T11:20:08;7.40;99.90
3380;DHT22;1703;51.964;7.642;2023-12-20T11:22:37;7.50;99.90
3380;DHT22;1703;51.964;7.642;2023-12-20T11:25:08;7.40;99.90
3380;DHT22;1703;51.964;7.642;2023-12-20T11:27:35;7.40;99.90
3380;DHT22;1703;51.964;7.642;2023-12-20T11:30:05;7.40;99.90
3380;DHT22;1703;51.964;7.642;2023-12-20T11:32:34;7.40;99.90
3380;DHT22;1703;51.964;7.642;2023-12-20T11:35:17;7.50;99.90
3380;DHT22;1703;51.964;7.642;2023-12-20T11:37:45;7.50;99.90
3380;DHT22;1703;51.964;7.642;2023-12-20T11:40:15;7.50;99.90
3380;DHT22;1703;51.964;7.642;2023-12-20T11:42:43;7.60;99.90
3380;DHT22;1703;51.964;7.642;2023-12-20T11:45:14;7.60;99.90
3380;DHT22;1703;51.964;7.642;2023-12-20T11:47:42;7.70;99.90
3380;DHT22;1703;51.964;7.642;2023-12-20T11:50:10;7.80;99.90
3380;DHT22;1703;51.964;7.642;2023-12-20T11:52:37;7.80;99.90
3380;DHT22;1703;51.964;7.642;2023-12-20T11:55:04;7.80;99.90
3380;DHT22;1703;51.964;7.642;2023-12-20T11:57:31;7.80;99.90
3380;DHT22;1703;51.964;7.642;2023-12-20T11:59:58;7.80;99.90
3380;DHT22;1703;51.964;7.642;2023-12-20T12:02:27;7.90;99.90
3380;DHT22;1703;51.964;7.642;2023-12-20T12:04:53;7.80;99.90
3380;DHT22;1703;51.964;7.642;2023-12-20T12:07:20;7.80;99.90
3380;DHT22;1703;51.964;7.642;2023-12-20T12:09:47;7.90;99.90
3380;DHT22;1703;51.964;7.642;2023-12-20T12:12:15;7.90;99.90
3380;DHT22;1703;51.964;7.642;2023-12-20T12:14:42;7.90;99.90
3380;DHT22;1703;51.964;7.642;2023-12-20T12:17:12;7.90;99.90
3380;DHT22;1703;51.964;7.642;2023-12-20T12:19:42;7.90;99.90
3380;DHT22;1703;51.964;7.642;2023-12-20T12:22:13;7.90;99.90
3380;DHT22;1703;51.964;7.642;2023-12-20T12:24:42;8.00;99.90
3380;DHT22;1703;51.964;7.642;2023-12-20T12:27:10;8.00;99.90
3380;DHT22;1703;51.964;7.642;2023-12-20T12:29:40;8.00;99.90
3380;DHT22;1703;51.964;7.642;2023-12-20T12:32:07;8.00;99.90
3380;DHT22;1703;51.964;7.642;2023-12-20T12:34:35;8.10;99.90
3380;DHT22;1703;51.964;7.642;2023-12-20T12:37:04;8.10;99.90
3380;DHT22;1703;51.964;7.642;2023-12-20T12:39:31;8.20;99.90
3380;DHT22;1703;51.964;7.642;2023-12-20T12:41:58;8.20;99.90
3380;DHT22;1703;51.964;7.642;2023-12-20T12:44:25;8.20;99.90
3380;DHT22;1703;51.964;7.642;2023-12-20T12:46:52;8.20;99.90
3380;DHT22;1703;51.964;7.642;2023-12-20T12:49:20;8.20;99.90
3380;DHT22;1703;51.964;7.642;2023-12-20T12:51:47;8.20;99.90
3380;DHT22;1703;51.964;7.642;2023-12-20T12:54:15;8.30;99.90
3380;DHT22;1703;51.964;7.642;2023-12-20T12:56:43;8.30;99.90
3380;DHT22;1703;51.964;7.642;2023-12-20T12:59:12;8.40;99.90
3380;DHT22;1703;51.964;7.642;2023-12-20T13:01:39;8.40;99.90
3380;DHT22;1703;51.964;7.642;2023-12-20T13:04:06;8.40;99.90
3380;DHT22;1703;51.964;7.642;2023-12-20T13:06:36;8.40;99.90
3380;DHT22;1703;51.964;7.642;2023-12-20T13:09:03;8.40;99.90
3380;DHT22;1703;51.964;7.642;2023-12-20T13:11:31;8.40;99.90
3380;DHT22;1703;51.964;7.642;2023-12-20T13:13:58;8.40;99.90
3380;DHT22;1703;51.964;7.642;2023-12-20T13:16:25;8.40;99.90
3380;DHT22;1703;51.964;7.642;2023-12-20T13:18:52;8.30;99.90
3380;DHT22;1703;51.964;7.642;2023-12-20T13:21:19;8.30;99.90
3380;DHT22;1703;51.964;7.642;2023-12-20T13:23:46;8.30;99.90
3380;DHT22;1703;51.964;7.642;2023-12-20T13:26:13;8.30;99.90
3380;DHT22;1703;51.964;7.642;2023-12-20T13:28:41;8.20;99.90
3380;DHT22;1703;51.964;7.642;2023-12-20T13:31:08;8.20;99.90
3380;DHT22;1703;51.964;7.642;2023-12-20T13:33:35;8.20;99.90
3380;DHT22;1703;51.964;7.642;2023-12-20T13:36:02;8.20;99.90
3380;DHT22;1703;51.964;7.642;2023-12-20T13:38:29;8.20;99.90
3380;DHT22;1703;51.964;7.642;2023-12-20T13:40:59;8.20;99.90
3380;DHT22;1703;51.964;7.642;2023-12-20T13:43:26;8.20;99.90
3380;DHT22;1703;51.964;7.642;2023-12-20T13:45:54;8.20;99.90
3380;DHT22;1703;51.964;7.642;2023-12-20T13:48:21;8.20;99.90
3380;DHT22;1703;51.964;7.642;2023-12-20T13:50:48;8.20;99.90
3380;DHT22;1703;51.964;7.642;2023-12-20T13:53:15;8.30;99.90
3380;DHT22;1703;51.964;7.642;2023-12-20T13:55:42;8.40;99.90
3380;DHT22;1703;51.964;7.642;2023-12-20T13:58:09;8.50;99.90
3380;DHT22;1703;51.964;7.642;2023-12-20T14:00:36;8.50;99.90
3380;DHT22;1703;51.964;7.642;2023-12-20T14:03:05;8.40;99.90
3380;DHT22;1703;51.964;7.642;2023-12-20T14:05:32;8.40;99.90
3380;DHT22;1703;51.964;7.642;2023-12-20T14:07:59;8.40;99.90
3380;DHT22;1703;51.964;7.642;2023-12-20T14:10:26;8.40;99.90
3380;DHT22;1703;51.964;7.642;2023-12-20T14:12:53;8.50;99.90
3380;DHT22;1703;51.964;7.642;2023-12-20T14:15:20;8.40;99.90
3380;DHT22;1703;51.964;7.642;2023-12-20T14:17:53;8.40;99.90
3380;DHT22;1703;51.964;7.642;2023-12-20T14:20:21;8.40;99.90
3380;DHT22;1703;51.964;7.642;2023-12-20T14:22:49;8.40;99.90
3380;DHT22;1703;51.964;7.642;2023-12-20T14:25:16;8.30;99.90
3380;DHT22;1703;51.964;7.642;2023-12-20T14:27:43;8.40;99.90
3380;DHT22;1703;51.964;7.642;2023-12-20T14:30:10;8.30;99.90
3380;DHT22;1703;51.964;7.642;2023-12-20T14:32:39;8.40;99.90
3380;DHT22;1703;51.964;7.642;2023-12-20T14:35:06;8.40;99.90
3380;DHT22;1703;51.964;7.642;2023-12-20T14:37:36;8.40;99.90
3380;DHT22;1703;51.964;7.642;2023-12-20T14:40:05;8.30;99.90
3380;DHT22;1703;51.964;7.642;2023-12-20T14:42:36;8.30;99.90
3380;DHT22;1703;51.964;7.642;2023-12-20T14:45:04;8.30;99.90
3380;DHT22;1703;51.964;7.642;2023-12-20T14:47:30;8.30;99.90
3380;DHT22;1703;51.964;7.642;2023-12-20T14:49:57;8.30;99.90
3380;DHT22;1703;51.964;7.642;2023-12-20T14:52:24;8.20;99.90
3380;DHT22;1703;51.964;7.642;2023-12-20T14:54:52;8.30;99.90
3380;DHT22;1703;51.964;7.642;2023-12-20T14:57:19;8.20;99.90
3380;DHT22;1703;51.964;7.642;2023-12-20T14:59:46;8.20;99.90
3380;DHT22;1703;51.964;7.642;2023-12-20T15:02:12;8.20;99.90
3380;DHT22;1703;51.964;7.642;2023-12-20T15:04:40;8.20;99.90
3380;DHT22;1703;51.964;7.642;2023-12-20T15:07:07;8.20;99.90
3380;DHT22;1703;51.964;7.642;2023-12-20T15:09:34;8.10;99.90
3380;DHT22;1703;51.964;7.642;2023-12-20T15:12:03;8.10;99.90
3380;DHT22;1703;51.964;7.642;2023-12-20T15:14:30;8.10;99.90
3380;DHT22;1703;51.964;7.642;2023-12-20T15:16:57;8.10;99.90
3380;DHT22;1703;51.964;7.642;2023-12-20T15:19:24;8.10;99.90
3380;DHT22;1703;51.964;7.642;2023-12-20T15:21:51;8.10;99.90
3380;DHT22;1703;51.964;7.642;2023-12-20T15:24:18;8.10;99.90
3380;DHT22;1703;51.964;7.642;2023-12-20T15:26:52;8.00;99.90
3380;DHT22;1703;51.964;7.642;2023-12-20T15:29:20;8.00;99.90
3380;DHT22;1703;51.964;7.642;2023-12-20T15:31:47;8.10;99.90
3380;DHT22;1703;51.964;7.642;2023-12-20T15:34:14;8.00;99.90
3380;DHT22;1703;51.964;7.642;2023-12-20T15:36:42;8.00;99.90
3380;DHT22;1703;51.964;7.642;2023-12-20T15:39:09;8.00;99.90
3380;DHT22;1703;51.964;7.642;2023-12-20T15:41:40;8.00;99.90
3380;DHT22;1703;51.964;7.642;2023-12-20T15:44:07;8.00;99.90
3380;DHT22;1703;51.964;7.642;2023-12-20T15:46:35;8.00;99.90
3380;DHT22;1703;51.964;7.642;2023-12-20T15:49:01;8.00;99.90
3380;DHT22;1703;51.964;7.642;2023-12-20T15:51:28;7.90;99.90
3380;DHT22;1703;51.964;7.642;2023-12-20T15:53:55;7.90;99.90
3380;DHT22;1703;51.964;7.642;2023-12-20T15:56:22;7.90;99.90
3380;DHT22;1703;51.964;7.642;2023-12-20T15:58:49;7.90;99.90
3380;DHT22;1703;51.964;7.642;2023-12-20T16:01:17;7.90;99.90
3380;DHT22;1703;51.964;7.642;2023-12-20T16:03:45;7.90;99.90
3380;DHT22;1703;51.964;7.642;2023-12-20T16:06:12;7.90;99.90
3380;DHT22;1703;51.964;7.642;2023-12-20T16:08:40;7.90;99.90
3380;DHT22;1703;51.964;7.642;2023-12-20T16:11:07;7.90;99.90
3380;DHT22;1703;51.964;7.642;2023-12-20T16:13:33;7.90;99.90
3380;DHT22;1703;51.964;7.642;2023-12-20T16:16:01;7.90;99.90
3380;DHT22;1703;51.964;7.642;2023-12-20T16:18:28;7.90;99.90